Panorama, New York
Current Conditions -  °F | °C
As of 6:54 PM on Monday 20 Oct 2014 (Local Time) from KROC Reporting Station
Light Rain Light Rain  
Wind Chill: 52°   Ceiling: 6000
Heat Index: 52°   Visibility: 10mi
Dew Point: 43°   Wind: 6mph
Humidity: 71%   Direction: 150°SSE
Pressure: 29.83"   Gusts: NA
Location:  43.1495°N, 77.5063°W
Report Text: KROC 202254Z 15005KT 10SM -RA BKN060 OVC080 11/06 A2983 RMK AO2 RAB01E16B53 SLP107 P0000 T01110061
Loading
Personal Weather Stations






























Interactive Weather Map
Tropical Storm Tracking
New forecast layout! Learn more

10-Day Weather Forecast

Advertisements
Track Severe Weather on mobile